Madoc, Canada
Current Conditions -  °F | °C
As of 5:00 PM on Thursday 23 Oct 2014 (Local Time) from CYTR Reporting Station
Broken Clouds Broken Clouds  
Wind Chill: 63°   Ceiling: 4000
Heat Index: 63°   Visibility: 15mi
Dew Point: 52°   Wind: 13mph
Humidity: 68%   Direction: 350°N
Pressure: 29.98"   Gusts: 20mph
Location:  44.52°N, 77.48°W
Report Text: CYTR 232100Z 35011G17KT 15SM BKN040 17/11 A2998 RMK SC7 SLP155
Loading
Personal Weather Stations






























Interactive Weather Map
Tropical Storm Tracking
New forecast layout! Learn more

10-Day Weather Forecast

Advertisements
Track Severe Weather on mobile